sensor_id;sensor_type;location;lat;lon;timestamp;P1;durP1;ratioP1;P2;durP2;ratioP2
51614;SDS011;37695;52.960;6.188;2024-01-27T00:00:06;9.65;;;0.95;;
51614;SDS011;37695;52.960;6.188;2024-01-27T00:02:32;10.70;;;1.15;;
51614;SDS011;37695;52.960;6.188;2024-01-27T00:04:58;6.13;;;1.15;;
51614;SDS011;37695;52.960;6.188;2024-01-27T00:07:24;13.07;;;1.42;;
51614;SDS011;37695;52.960;6.188;2024-01-27T00:09:52;7.07;;;0.80;;
51614;SDS011;37695;52.960;6.188;2024-01-27T00:12:18;9.75;;;0.68;;
51614;SDS011;37695;52.960;6.188;2024-01-27T00:14:44;8.95;;;1.13;;
51614;SDS011;37695;52.960;6.188;2024-01-27T00:17:10;9.90;;;0.82;;
51614;SDS011;37695;52.960;6.188;2024-01-27T00:19:36;11.88;;;1.30;;
51614;SDS011;37695;52.960;6.188;2024-01-27T00:22:02;12.55;;;1.10;;
51614;SDS011;37695;52.960;6.188;2024-01-27T00:24:28;6.85;;;0.90;;
51614;SDS011;37695;52.960;6.188;2024-01-27T00:26:54;10.85;;;1.15;;
51614;SDS011;37695;52.960;6.188;2024-01-27T00:29:20;7.22;;;0.90;;
51614;SDS011;37695;52.960;6.188;2024-01-27T00:31:46;8.40;;;1.00;;
51614;SDS011;37695;52.960;6.188;2024-01-27T00:34:14;14.30;;;1.45;;
51614;SDS011;37695;52.960;6.188;2024-01-27T00:36:40;10.70;;;1.95;;
51614;SDS011;37695;52.960;6.188;2024-01-27T00:39:08;14.60;;;1.70;;
51614;SDS011;37695;52.960;6.188;2024-01-27T00:41:35;5.70;;;0.70;;
51614;SDS011;37695;52.960;6.188;2024-01-27T00:44:01;17.67;;;2.22;;
51614;SDS011;37695;52.960;6.188;2024-01-27T00:46:27;15.25;;;1.88;;
51614;SDS011;37695;52.960;6.188;2024-01-27T00:48:53;11.48;;;1.77;;
51614;SDS011;37695;52.960;6.188;2024-01-27T00:51:19;9.60;;;1.42;;
51614;SDS011;37695;52.960;6.188;2024-01-27T00:53:45;12.55;;;1.08;;
51614;SDS011;37695;52.960;6.188;2024-01-27T00:56:11;7.00;;;1.55;;
51614;SDS011;37695;52.960;6.188;2024-01-27T00:58:37;7.82;;;1.30;;
51614;SDS011;37695;52.960;6.188;2024-01-27T01:01:03;9.35;;;0.80;;
51614;SDS011;37695;52.960;6.188;2024-01-27T01:03:29;5.30;;;0.60;;
51614;SDS011;37695;52.960;6.188;2024-01-27T01:05:55;7.22;;;0.95;;
51614;SDS011;37695;52.960;6.188;2024-01-27T01:08:21;6.90;;;1.05;;
51614;SDS011;37695;52.960;6.188;2024-01-27T01:10:47;8.07;;;1.00;;
51614;SDS011;37695;52.960;6.188;2024-01-27T01:13:13;9.23;;;1.17;;
51614;SDS011;37695;52.960;6.188;2024-01-27T01:15:39;7.90;;;0.98;;
51614;SDS011;37695;52.960;6.188;2024-01-27T01:18:05;6.43;;;0.77;;
51614;SDS011;37695;52.960;6.188;2024-01-27T01:20:31;8.95;;;0.93;;
51614;SDS011;37695;52.960;6.188;2024-01-27T01:22:57;7.50;;;1.65;;
51614;SDS011;37695;52.960;6.188;2024-01-27T01:25:23;11.38;;;0.82;;
51614;SDS011;37695;52.960;6.188;2024-01-27T01:27:49;10.73;;;1.10;;
51614;SDS011;37695;52.960;6.188;2024-01-27T01:30:17;9.95;;;1.00;;
51614;SDS011;37695;52.960;6.188;2024-01-27T01:32:43;6.00;;;0.52;;
51614;SDS011;37695;52.960;6.188;2024-01-27T01:35:12;6.90;;;1.08;;
51614;SDS011;37695;52.960;6.188;2024-01-27T01:37:38;7.22;;;0.80;;
51614;SDS011;37695;52.960;6.188;2024-01-27T01:40:05;8.35;;;1.02;;
51614;SDS011;37695;52.960;6.188;2024-01-27T01:42:31;8.60;;;0.82;;
51614;SDS011;37695;52.960;6.188;2024-01-27T01:44:57;5.85;;;0.95;;
51614;SDS011;37695;52.960;6.188;2024-01-27T01:47:23;7.13;;;0.95;;
51614;SDS011;37695;52.960;6.188;2024-01-27T01:49:49;9.82;;;1.40;;
51614;SDS011;37695;52.960;6.188;2024-01-27T01:52:15;13.13;;;1.85;;
51614;SDS011;37695;52.960;6.188;2024-01-27T01:54:48;6.07;;;1.25;;
51614;SDS011;37695;52.960;6.188;2024-01-27T01:57:15;4.90;;;0.75;;
51614;SDS011;37695;52.960;6.188;2024-01-27T01:59:41;10.13;;;0.70;;
51614;SDS011;37695;52.960;6.188;2024-01-27T02:02:08;7.20;;;1.05;;
51614;SDS011;37695;52.960;6.188;2024-01-27T02:04:40;7.43;;;0.95;;
51614;SDS011;37695;52.960;6.188;2024-01-27T02:07:07;6.95;;;0.82;;
51614;SDS011;37695;52.960;6.188;2024-01-27T02:09:33;6.68;;;1.13;;
51614;SDS011;37695;52.960;6.188;2024-01-27T02:11:59;8.88;;;1.45;;
51614;SDS011;37695;52.960;6.188;2024-01-27T02:14:25;8.55;;;0.80;;
51614;SDS011;37695;52.960;6.188;2024-01-27T02:16:52;6.45;;;0.60;;
51614;SDS011;37695;52.960;6.188;2024-01-27T02:19:18;7.70;;;0.82;;
51614;SDS011;37695;52.960;6.188;2024-01-27T02:21:44;10.32;;;1.70;;
51614;SDS011;37695;52.960;6.188;2024-01-27T02:24:11;9.32;;;0.80;;
51614;SDS011;37695;52.960;6.188;2024-01-27T02:26:37;7.15;;;0.98;;
51614;SDS011;37695;52.960;6.188;2024-01-27T02:29:03;13.35;;;1.40;;
51614;SDS011;37695;52.960;6.188;2024-01-27T02:31:29;18.45;;;1.95;;
51614;SDS011;37695;52.960;6.188;2024-01-27T02:33:55;9.82;;;1.70;;
51614;SDS011;37695;52.960;6.188;2024-01-27T02:36:21;10.43;;;1.27;;
51614;SDS011;37695;52.960;6.188;2024-01-27T02:38:47;6.03;;;1.08;;
51614;SDS011;37695;52.960;6.188;2024-01-27T02:41:13;6.13;;;1.10;;
51614;SDS011;37695;52.960;6.188;2024-01-27T02:43:39;14.02;;;1.00;;
51614;SDS011;37695;52.960;6.188;2024-01-27T02:46:10;5.50;;;0.60;;
51614;SDS011;37695;52.960;6.188;2024-01-27T02:48:39;6.60;;;1.05;;
51614;SDS011;37695;52.960;6.188;2024-01-27T02:51:06;10.02;;;0.80;;
51614;SDS011;37695;52.960;6.188;2024-01-27T02:53:32;6.72;;;0.95;;
51614;SDS011;37695;52.960;6.188;2024-01-27T02:55:58;7.95;;;0.90;;
51614;SDS011;37695;52.960;6.188;2024-01-27T02:58:24;7.47;;;1.25;;
51614;SDS011;37695;52.960;6.188;2024-01-27T03:00:50;10.27;;;0.85;;
51614;SDS011;37695;52.960;6.188;2024-01-27T03:03:16;8.20;;;0.68;;
51614;SDS011;37695;52.960;6.188;2024-01-27T03:05:42;8.20;;;0.80;;
51614;SDS011;37695;52.960;6.188;2024-01-27T03:08:08;8.95;;;1.08;;
51614;SDS011;37695;52.960;6.188;2024-01-27T03:10:34;12.13;;;1.77;;
51614;SDS011;37695;52.960;6.188;2024-01-27T03:13:00;5.85;;;0.80;;
51614;SDS011;37695;52.960;6.188;2024-01-27T03:15:26;8.07;;;0.65;;
51614;SDS011;37695;52.960;6.188;2024-01-27T03:17:52;5.05;;;0.50;;
51614;SDS011;37695;52.960;6.188;2024-01-27T03:20:18;10.70;;;0.70;;
51614;SDS011;37695;52.960;6.188;2024-01-27T03:22:44;9.63;;;1.02;;
51614;SDS011;37695;52.960;6.188;2024-01-27T03:25:10;10.43;;;0.95;;
51614;SDS011;37695;52.960;6.188;2024-01-27T03:27:37;7.18;;;0.85;;
51614;SDS011;37695;52.960;6.188;2024-01-27T03:30:03;7.05;;;0.73;;
51614;SDS011;37695;52.960;6.188;2024-01-27T03:32:29;9.90;;;0.90;;
51614;SDS011;37695;52.960;6.188;2024-01-27T03:35:02;8.48;;;1.27;;
51614;SDS011;37695;52.960;6.188;2024-01-27T03:37:28;5.88;;;1.13;;
51614;SDS011;37695;52.960;6.188;2024-01-27T03:39:54;8.20;;;0.80;;
51614;SDS011;37695;52.960;6.188;2024-01-27T03:42:20;9.50;;;1.45;;
51614;SDS011;37695;52.960;6.188;2024-01-27T03:44:49;6.50;;;0.63;;
51614;SDS011;37695;52.960;6.188;2024-01-27T03:47:15;11.40;;;1.13;;
51614;SDS011;37695;52.960;6.188;2024-01-27T03:49:41;7.70;;;0.88;;
51614;SDS011;37695;52.960;6.188;2024-01-27T03:52:07;8.60;;;1.02;;
51614;SDS011;37695;52.960;6.188;2024-01-27T03:54:33;11.15;;;0.77;;
51614;SDS011;37695;52.960;6.188;2024-01-27T03:56:59;8.25;;;1.17;;
51614;SDS011;37695;52.960;6.188;2024-01-27T03:59:26;11.18;;;0.70;;
51614;SDS011;37695;52.960;6.188;2024-01-27T04:01:52;10.70;;;1.13;;
51614;SDS011;37695;52.960;6.188;2024-01-27T04:04:18;6.05;;;0.70;;
51614;SDS011;37695;52.960;6.188;2024-01-27T04:06:44;13.63;;;1.60;;
51614;SDS011;37695;52.960;6.188;2024-01-27T04:09:10;9.88;;;0.82;;
51614;SDS011;37695;52.960;6.188;2024-01-27T04:11:36;8.50;;;1.05;;
51614;SDS011;37695;52.960;6.188;2024-01-27T04:14:03;9.43;;;0.93;;
51614;SDS011;37695;52.960;6.188;2024-01-27T04:16:29;8.15;;;1.00;;
51614;SDS011;37695;52.960;6.188;2024-01-27T04:18:55;11.82;;;1.35;;
51614;SDS011;37695;52.960;6.188;2024-01-27T04:21:22;8.82;;;0.68;;
51614;SDS011;37695;52.960;6.188;2024-01-27T04:23:48;10.77;;;0.90;;
51614;SDS011;37695;52.960;6.188;2024-01-27T04:26:14;9.98;;;1.67;;
51614;SDS011;37695;52.960;6.188;2024-01-27T04:28:40;8.70;;;1.05;;
51614;SDS011;37695;52.960;6.188;2024-01-27T04:31:06;8.90;;;0.90;;
51614;SDS011;37695;52.960;6.188;2024-01-27T04:33:32;9.73;;;1.15;;
51614;SDS011;37695;52.960;6.188;2024-01-27T04:35:58;7.40;;;0.90;;
51614;SDS011;37695;52.960;6.188;2024-01-27T04:38:25;5.63;;;0.82;;
51614;SDS011;37695;52.960;6.188;2024-01-27T04:40:51;10.82;;;1.63;;
51614;SDS011;37695;52.960;6.188;2024-01-27T04:43:17;3.95;;;0.70;;
51614;SDS011;37695;52.960;6.188;2024-01-27T04:45:45;9.05;;;1.17;;
51614;SDS011;37695;52.960;6.188;2024-01-27T04:48:11;8.27;;;1.10;;
51614;SDS011;37695;52.960;6.188;2024-01-27T04:50:37;4.43;;;0.60;;
51614;SDS011;37695;52.960;6.188;2024-01-27T04:53:03;6.82;;;0.80;;
51614;SDS011;37695;52.960;6.188;2024-01-27T04:55:29;8.05;;;1.15;;
51614;SDS011;37695;52.960;6.188;2024-01-27T04:57:56;11.48;;;0.75;;
51614;SDS011;37695;52.960;6.188;2024-01-27T05:00:23;11.52;;;0.90;;
51614;SDS011;37695;52.960;6.188;2024-01-27T05:02:51;7.95;;;1.00;;
51614;SDS011;37695;52.960;6.188;2024-01-27T05:05:18;7.63;;;0.80;;
51614;SDS011;37695;52.960;6.188;2024-01-27T05:07:44;11.88;;;0.88;;
51614;SDS011;37695;52.960;6.188;2024-01-27T05:10:10;8.43;;;1.38;;
51614;SDS011;37695;52.960;6.188;2024-01-27T05:12:39;8.45;;;1.75;;
51614;SDS011;37695;52.960;6.188;2024-01-27T05:15:05;11.70;;;1.17;;
51614;SDS011;37695;52.960;6.188;2024-01-27T05:17:31;5.63;;;1.33;;
51614;SDS011;37695;52.960;6.188;2024-01-27T05:19:58;9.27;;;1.45;;
51614;SDS011;37695;52.960;6.188;2024-01-27T05:22:24;9.05;;;0.93;;
51614;SDS011;37695;52.960;6.188;2024-01-27T05:24:50;7.70;;;0.70;;
51614;SDS011;37695;52.960;6.188;2024-01-27T05:27:16;11.00;;;1.27;;
51614;SDS011;37695;52.960;6.188;2024-01-27T05:29:42;9.07;;;1.48;;
51614;SDS011;37695;52.960;6.188;2024-01-27T05:32:08;9.60;;;1.02;;
51614;SDS011;37695;52.960;6.188;2024-01-27T05:34:34;12.70;;;1.10;;
51614;SDS011;37695;52.960;6.188;2024-01-27T05:37:00;12.65;;;1.20;;
51614;SDS011;37695;52.960;6.188;2024-01-27T05:39:26;7.65;;;0.70;;
51614;SDS011;37695;52.960;6.188;2024-01-27T05:41:54;11.13;;;0.90;;
51614;SDS011;37695;52.960;6.188;2024-01-27T05:44:20;9.15;;;1.00;;
51614;SDS011;37695;52.960;6.188;2024-01-27T05:46:46;11.90;;;1.20;;
51614;SDS011;37695;52.960;6.188;2024-01-27T05:49:12;6.82;;;1.15;;
51614;SDS011;37695;52.960;6.188;2024-01-27T05:51:38;9.02;;;0.70;;
51614;SDS011;37695;52.960;6.188;2024-01-27T05:54:04;8.95;;;0.80;;
51614;SDS011;37695;52.960;6.188;2024-01-27T05:56:30;8.60;;;0.85;;
51614;SDS011;37695;52.960;6.188;2024-01-27T05:58:56;9.30;;;0.98;;
51614;SDS011;37695;52.960;6.188;2024-01-27T06:01:22;6.88;;;1.10;;
51614;SDS011;37695;52.960;6.188;2024-01-27T06:03:48;14.32;;;2.10;;
51614;SDS011;37695;52.960;6.188;2024-01-27T06:06:14;9.40;;;1.45;;
51614;SDS011;37695;52.960;6.188;2024-01-27T06:08:41;5.90;;;0.93;;
51614;SDS011;37695;52.960;6.188;2024-01-27T06:11:07;9.05;;;1.48;;
51614;SDS011;37695;52.960;6.188;2024-01-27T06:13:33;9.50;;;1.10;;
51614;SDS011;37695;52.960;6.188;2024-01-27T06:15:59;8.65;;;1.20;;
51614;SDS011;37695;52.960;6.188;2024-01-27T06:18:25;9.55;;;1.30;;
51614;SDS011;37695;52.960;6.188;2024-01-27T06:20:51;9.20;;;1.55;;
51614;SDS011;37695;52.960;6.188;2024-01-27T06:23:17;13.95;;;1.90;;
51614;SDS011;37695;52.960;6.188;2024-01-27T06:25:43;8.00;;;1.30;;
51614;SDS011;37695;52.960;6.188;2024-01-27T06:28:09;8.90;;;1.67;;
51614;SDS011;37695;52.960;6.188;2024-01-27T06:30:35;8.98;;;1.10;;
51614;SDS011;37695;52.960;6.188;2024-01-27T06:33:01;7.07;;;1.00;;
51614;SDS011;37695;52.960;6.188;2024-01-27T06:35:27;5.47;;;0.90;;
51614;SDS011;37695;52.960;6.188;2024-01-27T06:37:53;6.25;;;0.70;;
51614;SDS011;37695;52.960;6.188;2024-01-27T06:40:19;11.27;;;1.08;;
51614;SDS011;37695;52.960;6.188;2024-01-27T06:42:45;9.57;;;1.15;;
51614;SDS011;37695;52.960;6.188;2024-01-27T06:45:11;6.25;;;1.35;;
51614;SDS011;37695;52.960;6.188;2024-01-27T06:47:38;11.30;;;1.55;;
51614;SDS011;37695;52.960;6.188;2024-01-27T06:50:04;14.90;;;1.70;;
51614;SDS011;37695;52.960;6.188;2024-01-27T06:52:30;13.18;;;1.33;;
51614;SDS011;37695;52.960;6.188;2024-01-27T06:54:56;15.00;;;1.42;;
51614;SDS011;37695;52.960;6.188;2024-01-27T06:57:23;10.15;;;1.15;;
51614;SDS011;37695;52.960;6.188;2024-01-27T06:59:50;9.20;;;1.33;;
51614;SDS011;37695;52.960;6.188;2024-01-27T07:02:27;9.77;;;0.95;;
51614;SDS011;37695;52.960;6.188;2024-01-27T07:04:53;10.82;;;1.38;;
51614;SDS011;37695;52.960;6.188;2024-01-27T07:07:27;10.18;;;1.23;;
51614;SDS011;37695;52.960;6.188;2024-01-27T07:09:57;12.82;;;1.10;;
51614;SDS011;37695;52.960;6.188;2024-01-27T07:12:23;9.10;;;1.13;;
51614;SDS011;37695;52.960;6.188;2024-01-27T07:14:49;10.38;;;1.23;;
51614;SDS011;37695;52.960;6.188;2024-01-27T07:17:16;11.98;;;1.13;;
51614;SDS011;37695;52.960;6.188;2024-01-27T07:19:42;8.77;;;2.08;;
51614;SDS011;37695;52.960;6.188;2024-01-27T07:22:08;7.05;;;1.67;;
51614;SDS011;37695;52.960;6.188;2024-01-27T07:24:34;10.63;;;1.83;;
51614;SDS011;37695;52.960;6.188;2024-01-27T07:27:00;10.20;;;1.40;;
51614;SDS011;37695;52.960;6.188;2024-01-27T07:29:27;10.15;;;1.73;;
51614;SDS011;37695;52.960;6.188;2024-01-27T07:31:53;7.80;;;1.65;;
51614;SDS011;37695;52.960;6.188;2024-01-27T07:34:19;11.07;;;1.88;;
51614;SDS011;37695;52.960;6.188;2024-01-27T07:36:45;10.32;;;1.88;;
51614;SDS011;37695;52.960;6.188;2024-01-27T07:39:13;13.00;;;1.50;;
51614;SDS011;37695;52.960;6.188;2024-01-27T07:41:39;8.48;;;1.30;;
51614;SDS011;37695;52.960;6.188;2024-01-27T07:46:37;9.35;;;1.50;;
51614;SDS011;37695;52.960;6.188;2024-01-27T07:49:03;10.77;;;1.42;;
51614;SDS011;37695;52.960;6.188;2024-01-27T07:51:29;8.68;;;1.90;;
51614;SDS011;37695;52.960;6.188;2024-01-27T07:53:56;10.27;;;1.65;;
51614;SDS011;37695;52.960;6.188;2024-01-27T07:56:22;12.35;;;2.30;;
51614;SDS011;37695;52.960;6.188;2024-01-27T07:58:48;9.00;;;1.80;;
51614;SDS011;37695;52.960;6.188;2024-01-27T08:01:14;11.05;;;1.98;;
51614;SDS011;37695;52.960;6.188;2024-01-27T08:03:41;17.25;;;2.95;;
51614;SDS011;37695;52.960;6.188;2024-01-27T08:06:07;10.45;;;2.70;;
51614;SDS011;37695;52.960;6.188;2024-01-27T08:08:39;12.32;;;2.67;;
51614;SDS011;37695;52.960;6.188;2024-01-27T08:11:05;8.85;;;3.22;;
51614;SDS011;37695;52.960;6.188;2024-01-27T08:13:31;9.93;;;2.25;;
51614;SDS011;37695;52.960;6.188;2024-01-27T08:15:57;9.63;;;2.10;;
51614;SDS011;37695;52.960;6.188;2024-01-27T08:18:23;9.80;;;2.15;;
51614;SDS011;37695;52.960;6.188;2024-01-27T08:20:49;9.05;;;2.13;;
51614;SDS011;37695;52.960;6.188;2024-01-27T08:23:15;11.50;;;3.05;;
51614;SDS011;37695;52.960;6.188;2024-01-27T08:25:42;6.82;;;2.30;;
51614;SDS011;37695;52.960;6.188;2024-01-27T08:28:10;11.23;;;2.28;;
51614;SDS011;37695;52.960;6.188;2024-01-27T08:30:36;11.05;;;2.85;;
51614;SDS011;37695;52.960;6.188;2024-01-27T08:33:03;10.85;;;2.42;;
51614;SDS011;37695;52.960;6.188;2024-01-27T08:35:30;13.85;;;2.05;;
51614;SDS011;37695;52.960;6.188;2024-01-27T08:37:56;10.75;;;2.80;;
51614;SDS011;37695;52.960;6.188;2024-01-27T08:40:22;9.98;;;2.50;;
51614;SDS011;37695;52.960;6.188;2024-01-27T08:42:48;11.10;;;2.50;;
51614;SDS011;37695;52.960;6.188;2024-01-27T08:45:14;9.63;;;1.90;;
51614;SDS011;37695;52.960;6.188;2024-01-27T08:47:40;7.97;;;2.05;;
51614;SDS011;37695;52.960;6.188;2024-01-27T08:50:06;14.02;;;2.85;;
51614;SDS011;37695;52.960;6.188;2024-01-27T08:52:32;8.85;;;2.30;;
51614;SDS011;37695;52.960;6.188;2024-01-27T08:54:58;13.48;;;2.70;;
51614;SDS011;37695;52.960;6.188;2024-01-27T08:57:24;11.88;;;2.92;;
51614;SDS011;37695;52.960;6.188;2024-01-27T08:59:50;11.00;;;2.60;;
51614;SDS011;37695;52.960;6.188;2024-01-27T09:02:16;13.73;;;3.10;;
51614;SDS011;37695;52.960;6.188;2024-01-27T09:04:42;9.90;;;2.10;;
51614;SDS011;37695;52.960;6.188;2024-01-27T09:07:08;10.50;;;3.05;;
51614;SDS011;37695;52.960;6.188;2024-01-27T09:09:34;12.63;;;2.58;;
51614;SDS011;37695;52.960;6.188;2024-01-27T09:12:03;9.30;;;2.83;;
51614;SDS011;37695;52.960;6.188;2024-01-27T09:14:29;8.35;;;2.42;;
51614;SDS011;37695;52.960;6.188;2024-01-27T09:16:55;8.80;;;2.10;;
51614;SDS011;37695;52.960;6.188;2024-01-27T09:19:21;8.48;;;2.50;;
51614;SDS011;37695;52.960;6.188;2024-01-27T09:21:47;9.85;;;2.15;;
51614;SDS011;37695;52.960;6.188;2024-01-27T09:24:14;10.57;;;3.75;;
51614;SDS011;37695;52.960;6.188;2024-01-27T09:26:40;11.95;;;3.00;;
51614;SDS011;37695;52.960;6.188;2024-01-27T09:29:06;9.63;;;2.88;;
51614;SDS011;37695;52.960;6.188;2024-01-27T09:31:32;12.45;;;3.88;;
51614;SDS011;37695;52.960;6.188;2024-01-27T09:33:58;12.05;;;2.45;;
51614;SDS011;37695;52.960;6.188;2024-01-27T09:36:24;9.48;;;2.75;;
51614;SDS011;37695;52.960;6.188;2024-01-27T09:38:51;10.73;;;3.42;;
51614;SDS011;37695;52.960;6.188;2024-01-27T09:41:17;7.57;;;3.15;;
51614;SDS011;37695;52.960;6.188;2024-01-27T09:43:44;9.00;;;2.60;;
51614;SDS011;37695;52.960;6.188;2024-01-27T09:46:11;7.47;;;2.50;;
51614;SDS011;37695;52.960;6.188;2024-01-27T09:48:37;11.45;;;2.55;;
51614;SDS011;37695;52.960;6.188;2024-01-27T09:51:03;11.82;;;2.90;;
51614;SDS011;37695;52.960;6.188;2024-01-27T09:53:30;10.02;;;2.40;;
51614;SDS011;37695;52.960;6.188;2024-01-27T09:55:57;8.52;;;2.20;;
51614;SDS011;37695;52.960;6.188;2024-01-27T09:58:24;12.50;;;2.70;;
51614;SDS011;37695;52.960;6.188;2024-01-27T10:00:53;13.73;;;2.90;;
51614;SDS011;37695;52.960;6.188;2024-01-27T10:03:26;8.35;;;2.17;;
51614;SDS011;37695;52.960;6.188;2024-01-27T10:05:54;12.10;;;3.42;;
51614;SDS011;37695;52.960;6.188;2024-01-27T10:08:21;10.77;;;2.40;;
51614;SDS011;37695;52.960;6.188;2024-01-27T10:10:48;9.35;;;2.65;;
51614;SDS011;37695;52.960;6.188;2024-01-27T10:13:20;10.27;;;2.50;;
51614;SDS011;37695;52.960;6.188;2024-01-27T10:16:01;6.95;;;2.20;;
51614;SDS011;37695;52.960;6.188;2024-01-27T10:18:28;9.88;;;2.97;;
51614;SDS011;37695;52.960;6.188;2024-01-27T10:20:54;10.50;;;2.35;;
51614;SDS011;37695;52.960;6.188;2024-01-27T10:23:20;14.77;;;3.47;;
51614;SDS011;37695;52.960;6.188;2024-01-27T10:25:46;12.10;;;3.22;;
51614;SDS011;37695;52.960;6.188;2024-01-27T10:28:12;11.40;;;2.78;;
51614;SDS011;37695;52.960;6.188;2024-01-27T10:30:39;13.63;;;3.10;;
51614;SDS011;37695;52.960;6.188;2024-01-27T10:33:07;11.30;;;2.92;;
51614;SDS011;37695;52.960;6.188;2024-01-27T10:35:35;10.60;;;2.70;;
51614;SDS011;37695;52.960;6.188;2024-01-27T10:38:01;11.70;;;3.03;;
51614;SDS011;37695;52.960;6.188;2024-01-27T10:40:27;13.75;;;3.28;;
51614;SDS011;37695;52.960;6.188;2024-01-27T10:43:03;11.63;;;3.08;;
51614;SDS011;37695;52.960;6.188;2024-01-27T10:45:34;15.10;;;3.55;;
51614;SDS011;37695;52.960;6.188;2024-01-27T10:50:28;12.82;;;3.15;;
51614;SDS011;37695;52.960;6.188;2024-01-27T10:52:55;15.43;;;3.40;;
51614;SDS011;37695;52.960;6.188;2024-01-27T10:55:22;10.75;;;3.13;;
51614;SDS011;37695;52.960;6.188;2024-01-27T10:57:49;14.63;;;3.38;;
51614;SDS011;37695;52.960;6.188;2024-01-27T11:00:17;17.45;;;5.05;;
51614;SDS011;37695;52.960;6.188;2024-01-27T11:02:43;15.68;;;3.38;;
51614;SDS011;37695;52.960;6.188;2024-01-27T11:05:10;12.07;;;3.58;;
51614;SDS011;37695;52.960;6.188;2024-01-27T11:07:36;20.80;;;3.95;;
51614;SDS011;37695;52.960;6.188;2024-01-27T11:10:04;12.75;;;3.78;;
51614;SDS011;37695;52.960;6.188;2024-01-27T11:12:30;14.48;;;3.35;;
51614;SDS011;37695;52.960;6.188;2024-01-27T11:14:56;16.88;;;3.47;;
51614;SDS011;37695;52.960;6.188;2024-01-27T11:17:25;13.57;;;3.10;;
51614;SDS011;37695;52.960;6.188;2024-01-27T11:19:52;11.48;;;3.35;;
51614;SDS011;37695;52.960;6.188;2024-01-27T11:22:27;10.65;;;3.30;;
51614;SDS011;37695;52.960;6.188;2024-01-27T11:27:38;11.80;;;3.13;;
51614;SDS011;37695;52.960;6.188;2024-01-27T11:30:04;14.13;;;3.85;;
51614;SDS011;37695;52.960;6.188;2024-01-27T11:32:32;9.25;;;3.03;;
51614;SDS011;37695;52.960;6.188;2024-01-27T11:35:00;9.77;;;2.20;;
51614;SDS011;37695;52.960;6.188;2024-01-27T11:37:29;12.63;;;2.53;;
51614;SDS011;37695;52.960;6.188;2024-01-27T11:40:05;13.50;;;2.65;;
51614;SDS011;37695;52.960;6.188;2024-01-27T11:42:32;9.70;;;2.25;;
51614;SDS011;37695;52.960;6.188;2024-01-27T11:44:58;13.63;;;1.95;;
51614;SDS011;37695;52.960;6.188;2024-01-27T11:47:25;13.52;;;2.20;;
51614;SDS011;37695;52.960;6.188;2024-01-27T11:49:52;12.15;;;1.92;;
51614;SDS011;37695;52.960;6.188;2024-01-27T11:52:18;8.43;;;2.35;;
51614;SDS011;37695;52.960;6.188;2024-01-27T11:54:45;8.27;;;1.80;;
51614;SDS011;37695;52.960;6.188;2024-01-27T11:57:11;11.02;;;2.15;;
51614;SDS011;37695;52.960;6.188;2024-01-27T11:59:37;11.18;;;1.58;;
51614;SDS011;37695;52.960;6.188;2024-01-27T12:02:03;12.18;;;2.55;;
51614;SDS011;37695;52.960;6.188;2024-01-27T12:04:29;11.68;;;1.58;;
51614;SDS011;37695;52.960;6.188;2024-01-27T12:06:55;8.18;;;1.25;;
51614;SDS011;37695;52.960;6.188;2024-01-27T12:09:21;9.07;;;2.40;;
51614;SDS011;37695;52.960;6.188;2024-01-27T12:11:47;10.48;;;1.85;;
51614;SDS011;37695;52.960;6.188;2024-01-27T12:14:13;10.68;;;1.88;;
51614;SDS011;37695;52.960;6.188;2024-01-27T12:16:40;7.65;;;1.50;;
51614;SDS011;37695;52.960;6.188;2024-01-27T12:19:09;7.47;;;1.88;;
51614;SDS011;37695;52.960;6.188;2024-01-27T12:21:36;12.93;;;1.83;;
51614;SDS011;37695;52.960;6.188;2024-01-27T12:24:02;6.25;;;1.08;;
51614;SDS011;37695;52.960;6.188;2024-01-27T12:26:29;9.35;;;1.75;;
51614;SDS011;37695;52.960;6.188;2024-01-27T12:28:56;11.13;;;1.80;;
51614;SDS011;37695;52.960;6.188;2024-01-27T12:31:25;12.13;;;1.80;;
51614;SDS011;37695;52.960;6.188;2024-01-27T12:33:52;9.10;;;1.85;;
51614;SDS011;37695;52.960;6.188;2024-01-27T12:36:19;8.88;;;1.67;;
51614;SDS011;37695;52.960;6.188;2024-01-27T12:38:59;8.80;;;1.63;;
51614;SDS011;37695;52.960;6.188;2024-01-27T12:41:26;7.90;;;2.25;;
51614;SDS011;37695;52.960;6.188;2024-01-27T12:43:52;11.23;;;1.75;;
51614;SDS011;37695;52.960;6.188;2024-01-27T12:46:18;9.70;;;2.05;;
51614;SDS011;37695;52.960;6.188;2024-01-27T12:48:45;8.70;;;1.77;;
51614;SDS011;37695;52.960;6.188;2024-01-27T12:51:11;9.15;;;2.17;;
51614;SDS011;37695;52.960;6.188;2024-01-27T12:53:40;8.07;;;2.20;;
51614;SDS011;37695;52.960;6.188;2024-01-27T12:58:38;10.88;;;1.83;;
51614;SDS011;37695;52.960;6.188;2024-01-27T13:01:05;9.90;;;1.85;;
51614;SDS011;37695;52.960;6.188;2024-01-27T13:03:31;10.07;;;2.05;;
51614;SDS011;37695;52.960;6.188;2024-01-27T13:05:57;11.60;;;2.25;;
51614;SDS011;37695;52.960;6.188;2024-01-27T13:08:23;9.32;;;2.45;;
51614;SDS011;37695;52.960;6.188;2024-01-27T13:10:50;9.30;;;1.77;;
51614;SDS011;37695;52.960;6.188;2024-01-27T13:13:16;7.95;;;1.52;;
51614;SDS011;37695;52.960;6.188;2024-01-27T13:15:42;9.45;;;1.67;;
51614;SDS011;37695;52.960;6.188;2024-01-27T13:18:09;14.60;;;2.55;;
51614;SDS011;37695;52.960;6.188;2024-01-27T13:20:35;9.45;;;1.35;;
51614;SDS011;37695;52.960;6.188;2024-01-27T13:23:01;10.85;;;2.00;;
51614;SDS011;37695;52.960;6.188;2024-01-27T13:25:27;9.18;;;1.83;;
51614;SDS011;37695;52.960;6.188;2024-01-27T13:27:53;12.20;;;2.67;;
51614;SDS011;37695;52.960;6.188;2024-01-27T13:30:20;11.98;;;2.28;;
51614;SDS011;37695;52.960;6.188;2024-01-27T13:32:47;10.27;;;2.08;;
51614;SDS011;37695;52.960;6.188;2024-01-27T13:35:13;10.57;;;2.20;;
51614;SDS011;37695;52.960;6.188;2024-01-27T13:37:39;8.52;;;1.88;;
51614;SDS011;37695;52.960;6.188;2024-01-27T13:40:05;11.10;;;2.05;;
51614;SDS011;37695;52.960;6.188;2024-01-27T13:42:33;16.58;;;2.75;;
51614;SDS011;37695;52.960;6.188;2024-01-27T13:44:59;12.15;;;2.45;;
51614;SDS011;37695;52.960;6.188;2024-01-27T13:47:25;12.95;;;2.70;;
51614;SDS011;37695;52.960;6.188;2024-01-27T13:49:51;7.28;;;2.58;;
51614;SDS011;37695;52.960;6.188;2024-01-27T13:52:17;9.63;;;2.38;;
51614;SDS011;37695;52.960;6.188;2024-01-27T13:54:43;9.48;;;2.63;;
51614;SDS011;37695;52.960;6.188;2024-01-27T13:57:09;10.13;;;2.65;;
51614;SDS011;37695;52.960;6.188;2024-01-27T13:59:36;12.93;;;2.63;;
51614;SDS011;37695;52.960;6.188;2024-01-27T14:02:02;10.10;;;2.13;;
51614;SDS011;37695;52.960;6.188;2024-01-27T14:04:28;16.05;;;2.90;;
51614;SDS011;37695;52.960;6.188;2024-01-27T14:06:54;10.60;;;2.70;;
51614;SDS011;37695;52.960;6.188;2024-01-27T14:09:21;9.30;;;2.10;;
51614;SDS011;37695;52.960;6.188;2024-01-27T14:11:47;11.75;;;2.47;;
51614;SDS011;37695;52.960;6.188;2024-01-27T14:14:13;13.93;;;3.15;;
51614;SDS011;37695;52.960;6.188;2024-01-27T14:16:39;10.30;;;2.72;;
51614;SDS011;37695;52.960;6.188;2024-01-27T14:19:06;15.18;;;2.30;;
51614;SDS011;37695;52.960;6.188;2024-01-27T14:21:32;9.50;;;2.00;;
51614;SDS011;37695;52.960;6.188;2024-01-27T14:23:58;13.77;;;2.42;;
51614;SDS011;37695;52.960;6.188;2024-01-27T14:28:55;10.07;;;2.45;;
51614;SDS011;37695;52.960;6.188;2024-01-27T14:31:21;15.02;;;3.08;;
51614;SDS011;37695;52.960;6.188;2024-01-27T14:33:47;9.20;;;2.70;;
51614;SDS011;37695;52.960;6.188;2024-01-27T14:36:14;13.35;;;2.90;;
51614;SDS011;37695;52.960;6.188;2024-01-27T14:38:40;11.75;;;2.53;;
51614;SDS011;37695;52.960;6.188;2024-01-27T14:41:09;14.57;;;3.05;;
51614;SDS011;37695;52.960;6.188;2024-01-27T14:43:38;10.73;;;2.97;;
51614;SDS011;37695;52.960;6.188;2024-01-27T14:46:04;20.15;;;4.38;;
51614;SDS011;37695;52.960;6.188;2024-01-27T14:48:31;18.48;;;4.32;;